Time;durP1;ratioP1;P1;durP2;ratioP2;P2;SDS_P1;SDS_P2;PMS_P1;PMS_P2;Temp;Humidity;BMP_temperature;BMP_pressure;BME280_temperature;BME280_humidity;BME280_pressure;Samples;Min_cycle;Max_cycle;Signal;HPM_P1;HPM_P2
2022/09/22 00:01:30;;;;;;;10.03;6.97;;;14.30;68.10;;;17.07;51.68;102480.94;5034807;28;20194;-57
2022/09/22 00:04:02;;;;;;;10.60;6.90;;;14.30;68.10;;;17.10;51.41;102480.59;5035611;28;20285;-56
2022/09/22 00:06:37;;;;;;;11.33;7.50;;;14.30;68.00;;;17.14;51.57;102481.09;5034496;28;20186;-57
2022/09/22 00:09:08;;;;;;;10.80;7.20;;;14.40;68.10;;;17.21;51.35;102482.06;5036851;28;20178;-56
2022/09/22 00:11:41;;;;;;;9.97;6.80;;;14.50;67.90;;;17.25;51.07;102475.38;5054463;28;20190;-56
2022/09/22 00:14:11;;;;;;;10.40;7.20;;;14.50;67.60;;;17.25;51.34;102480.69;5055614;28;20170;-58
2022/09/22 00:16:43;;;;;;;11.20;7.43;;;14.50;67.70;;;17.25;51.31;102473.56;5055442;28;20239;-57
2022/09/22 00:19:14;;;;;;;8.93;6.93;;;14.50;67.80;;;17.28;51.03;102478.50;5053396;28;20664;-58
2022/09/22 00:21:44;;;;;;;8.53;6.17;;;14.50;67.50;;;17.32;50.97;102479.00;5034723;28;20252;-59
2022/09/22 00:24:12;;;;;;;8.40;6.87;;;14.60;67.40;;;17.33;50.70;102480.66;5035540;28;20215;-58
2022/09/22 00:26:39;;;;;;;10.07;6.97;;;14.60;67.20;;;17.32;51.20;102479.81;5034855;28;20186;-54
2022/09/22 00:29:08;;;;;;;9.43;7.43;;;14.50;67.00;;;17.28;51.03;102483.81;5036453;28;20187;-56
2022/09/22 00:31:37;;;;;;;10.27;6.90;;;14.50;67.00;;;17.23;50.80;102472.91;5054600;28;20220;-59
2022/09/22 00:34:06;;;;;;;13.17;7.50;;;14.50;68.00;;;17.14;50.82;102476.59;5054305;28;20198;-54
2022/09/22 00:36:34;;;;;;;8.47;6.63;;;14.30;67.10;;;17.07;50.97;102485.47;5053873;28;20248;-58
2022/09/22 00:39:02;;;;;;;9.17;6.37;;;14.30;67.50;;;16.97;51.27;102485.69;5054163;28;20216;-57
2022/09/22 00:41:35;;;;;;;10.43;6.47;;;14.20;68.00;;;16.88;51.92;102482.22;5034108;28;20186;-55
2022/09/22 00:44:37;;;;;;;11.83;7.80;;;14.00;68.40;;;16.74;52.46;102484.75;5034796;28;20776;-55
2022/09/22 00:47:30;;;;;;;9.80;7.97;;;14.00;69.20;;;16.66;52.34;102476.81;5034711;28;20236;-59
2022/09/22 00:50:09;;;;;;;10.43;7.30;;;13.90;69.00;;;16.64;52.07;102478.81;5043085;28;20206;-56
2022/09/22 00:52:42;;;;;;;10.43;7.37;;;13.80;69.10;;;16.59;52.63;102481.16;5054839;28;20263;-54
2022/09/22 00:55:17;;;;;;;11.33;7.13;;;13.70;69.70;;;16.56;52.50;102476.19;5054365;28;20194;-56
2022/09/22 00:57:46;;;;;;;8.83;7.40;;;13.80;69.80;;;16.56;52.90;102470.88;5054542;28;20818;-57
2022/09/22 01:00:14;;;;;;;11.27;6.87;;;13.80;70.00;;;16.58;53.05;102474.19;5043820;28;20194;-58
2022/09/22 01:02:47;;;;;;;9.53;6.53;;;13.70;69.60;;;16.55;52.36;102469.19;5033772;28;20230;-58
2022/09/22 01:05:15;;;;;;;9.80;6.97;;;13.80;69.30;;;16.52;52.47;102472.22;5034656;28;20538;-57
2022/09/22 01:07:43;;;;;;;11.07;7.27;;;13.70;69.20;;;16.46;52.91;102471.03;5034485;28;20221;-55
2022/09/22 01:10:12;;;;;;;12.33;7.67;;;13.60;69.70;;;16.44;53.00;102467.72;5043289;28;20586;-56
2022/09/22 01:12:58;;;;;;;10.63;7.17;;;13.70;70.40;;;16.47;53.02;102466.53;5053397;28;20206;-56
2022/09/22 01:15:36;;;;;;;8.40;6.90;;;13.70;70.30;;;16.53;52.99;102460.56;5053788;28;20186;-55
2022/09/22 01:18:19;;;;;;;8.93;7.37;;;13.70;70.20;;;16.59;52.73;102465.22;5053469;28;20661;-57
2022/09/22 01:21:19;;;;;;;11.97;7.27;;;13.80;70.00;;;16.61;52.30;102463.22;5037565;28;20244;-57
2022/09/22 01:24:27;;;;;;;7.57;6.17;;;13.90;69.20;;;16.59;52.14;102466.00;5033512;28;20215;-56
2022/09/22 01:27:48;;;;;;;7.73;5.90;;;13.90;68.50;;;16.52;51.47;102464.25;5034413;28;20221;-56
2022/09/22 01:30:23;;;;;;;8.10;6.20;;;13.80;68.00;;;16.43;52.18;102458.06;5035036;28;20264;-56
2022/09/22 01:33:21;;;;;;;8.37;6.23;;;13.70;68.20;;;16.31;51.81;102461.28;5053658;28;20268;-56
2022/09/22 01:36:05;;;;;;;9.53;7.23;;;13.60;68.30;;;16.22;52.34;102448.00;5053655;28;20186;-57
2022/09/22 01:38:41;;;;;;;8.50;6.67;;;13.50;68.60;;;16.14;52.26;102453.31;5053627;28;20194;-57
2022/09/22 01:41:18;;;;;;;11.00;6.60;;;13.40;68.80;;;16.06;52.55;102444.53;5035593;28;20194;-57
2022/09/22 01:43:53;;;;;;;10.50;6.90;;;13.30;69.30;;;15.98;52.63;102441.88;5033239;28;20222;-57
2022/09/22 01:46:29;;;;;;;7.53;6.20;;;13.20;69.40;;;15.91;52.71;102444.38;5033119;28;20178;-57
2022/09/22 01:49:06;;;;;;;8.53;6.70;;;13.10;69.70;;;15.85;53.19;102439.75;5032333;28;20189;-55
2022/09/22 01:51:41;;;;;;;8.23;6.20;;;13.00;69.90;;;15.80;53.33;102442.06;5031632;28;20197;-56
2022/09/22 01:54:17;;;;;;;8.20;6.77;;;12.90;70.20;;;15.74;53.33;102445.38;5032138;28;20183;-56
2022/09/22 01:56:53;;;;;;;8.87;6.33;;;12.90;70.60;;;15.71;53.72;102437.75;5032228;28;20244;-55
2022/09/22 01:59:27;;;;;;;9.63;6.33;;;12.80;70.70;;;15.68;53.59;102435.44;5032201;28;20831;-55
2022/09/22 02:02:02;;;;;;;9.47;6.43;;;12.80;70.80;;;15.66;53.63;102437.44;5031622;28;20214;-55
2022/09/22 02:04:37;;;;;;;8.67;6.50;;;12.80;71.20;;;15.65;53.72;102433.09;5032067;28;20293;-54
2022/09/22 02:07:10;;;;;;;9.57;6.50;;;12.80;71.50;;;15.65;54.32;102437.56;5032123;28;20197;-57
2022/09/22 02:09:41;;;;;;;9.37;6.77;;;12.80;72.10;;;15.70;54.40;102430.78;5035507;28;20608;-56
2022/09/22 02:12:08;;;;;;;8.07;6.33;;;12.90;72.20;;;15.80;54.26;102425.31;5051919;28;20320;-56
2022/09/22 02:14:35;;;;;;;12.30;6.60;;;13.00;71.80;;;15.88;53.79;102418.16;5052355;28;20190;-55
2022/09/22 02:17:04;;;;;;;8.10;6.17;;;13.10;71.10;;;15.93;53.47;102421.13;5052006;28;20190;-55
2022/09/22 02:19:36;;;;;;;7.83;6.20;;;13.10;70.80;;;15.97;53.35;102425.13;5048848;28;20279;-55
2022/09/22 02:22:05;;;;;;;8.67;5.90;;;13.20;70.60;;;16.04;53.50;102423.47;5031458;28;20211;-54
2022/09/22 02:24:36;;;;;;;7.23;6.03;;;13.30;70.30;;;16.06;52.91;102420.63;5031741;28;20272;-56
2022/09/22 02:27:09;;;;;;;8.27;6.77;;;13.30;70.30;;;16.06;53.31;102415.31;5033709;28;20532;-56
2022/09/22 02:29:41;;;;;;;7.47;6.30;;;13.30;70.30;;;16.07;53.23;102417.78;5036128;28;20190;-54
2022/09/22 02:32:15;;;;;;;7.70;6.73;;;13.30;70.50;;;16.08;53.32;102419.47;5052549;28;20786;-56
2022/09/22 02:34:44;;;;;;;8.27;6.43;;;13.30;70.60;;;16.13;53.28;102417.13;5053999;28;20778;-59
2022/09/22 02:37:24;;;;;;;7.87;6.17;;;13.30;70.60;;;16.13;53.01;102419.78;5053142;28;20216;-58
2022/09/22 02:40:06;;;;;;;7.97;5.40;;;13.40;70.30;;;16.13;53.20;102414.47;5047331;28;20596;-54
2022/09/22 02:42:41;;;;;;;5.70;5.13;;;13.30;70.20;;;16.14;52.96;102415.31;5032386;28;20636;-58
2022/09/22 02:45:16;;;;;;;6.73;5.40;;;13.40;70.30;;;16.10;53.12;102414.81;5033141;28;20256;-56
2022/09/22 02:47:51;;;;;;;5.17;3.73;;;13.30;70.20;;;16.06;52.88;102410.84;5033286;28;20196;-55
2022/09/22 02:50:24;;;;;;;6.23;4.20;;;13.30;70.30;;;16.01;53.40;102407.84;5041554;28;20239;-56
2022/09/22 02:52:57;;;;;;;7.20;4.40;;;13.20;70.80;;;15.93;53.88;102410.50;5053037;28;20255;-53
2022/09/22 02:55:25;;;;;;;6.33;4.03;;;13.20;71.00;;;15.85;54.10;102410.53;5053221;28;20193;-56
2022/09/22 02:57:53;;;;;;;5.83;4.20;;;13.10;71.30;;;15.80;54.13;102409.38;5052978;28;20189;-58
2022/09/22 03:00:21;;;;;;;4.03;3.63;;;13.10;72.20;;;15.78;54.22;102412.22;5043213;28;20194;-54
2022/09/22 03:02:50;;;;;;;7.27;4.60;;;13.10;72.00;;;15.79;54.68;102411.19;5032578;28;20226;-55
2022/09/22 03:05:17;;;;;;;5.30;4.43;;;13.00;72.50;;;15.80;54.60;102398.75;5033880;28;20351;-57
2022/09/22 03:07:44;;;;;;;6.70;4.33;;;13.00;72.50;;;15.83;54.88;102398.44;5035851;28;20190;-56
2022/09/22 03:10:12;;;;;;;4.93;4.40;;;13.10;72.70;;;15.87;54.77;102400.56;5041851;28;20274;-56
2022/09/22 03:12:42;;;;;;;5.03;4.07;;;13.10;72.60;;;15.91;54.70;102401.88;5053960;28;20281;-56
2022/09/22 03:15:30;;;;;;;6.67;4.70;;;13.10;72.80;;;15.98;55.25;102402.88;5053161;28;20236;-56
2022/09/22 03:17:59;;;;;;;4.97;4.47;;;13.20;73.30;;;16.03;54.84;102400.53;5052826;28;20281;-56
2022/09/22 03:20:26;;;;;;;6.17;3.93;;;13.30;72.90;;;16.08;54.74;102398.22;5051761;28;20248;-54
2022/09/22 03:22:53;;;;;;;5.63;3.73;;;13.30;72.70;;;16.09;54.35;102399.84;5052034;28;20679;-57
2022/09/22 03:25:20;;;;;;;4.90;3.90;;;13.30;72.00;;;16.09;54.48;102389.22;5052258;28;20627;-57
2022/09/22 03:27:48;;;;;;;3.37;3.07;;;13.30;72.30;;;16.06;54.15;102394.91;5052455;28;20198;-55
2022/09/22 03:30:15;;;;;;;3.60;3.30;;;13.30;71.80;;;15.99;54.41;102385.94;5047685;28;20201;-58
2022/09/22 03:32:42;;;;;;;5.40;3.93;;;13.30;71.70;;;15.92;54.80;102392.94;5051683;28;20210;-56
2022/09/22 03:35:11;;;;;;;6.30;4.17;;;13.20;72.30;;;15.92;54.93;102387.63;5052482;28;20194;-55
2022/09/22 03:37:39;;;;;;;5.03;4.27;;;13.20;72.70;;;15.94;54.80;102384.78;5051458;28;20194;-55
2022/09/22 03:40:07;;;;;;;3.60;3.30;;;13.20;73.00;;;15.95;55.27;102389.13;5046288;28;20248;-55
2022/09/22 03:42:34;;;;;;;5.13;3.50;;;13.20;73.20;;;15.98;55.16;102391.41;5033834;28;20726;-56
2022/09/22 03:45:03;;;;;;;5.13;3.53;;;13.30;73.10;;;16.01;55.19;102388.44;5035666;28;20630;-57
2022/09/22 03:47:31;;;;;;;3.80;3.40;;;13.30;73.00;;;16.02;54.84;102387.44;5035588;28;20195;-56
2022/09/22 03:49:58;;;;;;;3.97;3.60;;;13.30;72.50;;;16.01;54.79;102389.25;5039891;28;20244;-58
2022/09/22 03:52:27;;;;;;;4.13;3.50;;;13.30;72.60;;;16.01;54.75;102386.59;5055139;28;20213;-58
2022/09/22 03:54:54;;;;;;;5.07;4.07;;;13.30;72.70;;;16.01;54.68;102386.59;5055629;28;20562;-56
2022/09/22 03:57:21;;;;;;;5.10;3.53;;;13.30;72.40;;;16.00;54.92;102384.94;5055846;28;20220;-56
2022/09/22 03:59:49;;;;;;;5.87;3.80;;;13.30;72.40;;;16.00;55.17;102382.28;5052258;28;20638;-57
2022/09/22 04:02:17;;;;;;;4.87;3.43;;;13.30;72.60;;;16.02;54.81;102382.13;5035168;28;20218;-57
2022/09/22 04:04:44;;;;;;;5.87;4.10;;;13.30;72.50;;;15.99;54.39;102377.97;5035516;28;20215;-55
2022/09/22 04:07:12;;;;;;;5.80;3.87;;;13.30;71.90;;;15.92;54.37;102376.16;5035356;28;20610;-57
2022/09/22 04:09:40;;;;;;;5.30;4.07;;;13.20;71.60;;;15.88;54.37;102374.84;5037069;28;20187;-59
2022/09/22 04:12:08;;;;;;;7.00;4.27;;;13.20;71.60;;;15.85;54.66;102370.72;5055175;28;20226;-58
2022/09/22 04:14:36;;;;;;;6.03;3.83;;;13.20;72.40;;;15.82;54.46;102373.69;5055164;28;20190;-57
2022/09/22 04:17:03;;;;;;;4.43;3.63;;;13.10;72.20;;;15.80;55.09;102370.38;5054691;28;20243;-55
2022/09/22 04:19:34;;;;;;;4.83;4.30;;;13.10;72.70;;;15.81;54.51;102369.38;5053796;28;20186;-57
2022/09/22 04:22:02;;;;;;;3.90;3.60;;;13.10;72.50;;;15.79;54.87;102363.41;5033162;28;20241;-57
2022/09/22 04:24:29;;;;;;;6.13;4.43;;;13.10;72.40;;;15.75;54.94;102359.44;5033587;28;20214;-56
2022/09/22 04:26:58;;;;;;;4.20;3.90;;;13.10;73.10;;;15.71;54.79;102363.44;5033605;28;20202;-56
2022/09/22 04:29:45;;;;;;;5.10;3.70;;;13.00;72.30;;;15.70;55.39;102353.78;5035391;28;20222;-56
2022/09/22 04:32:13;;;;;;;4.20;3.87;;;13.10;73.20;;;15.76;55.31;102360.25;5052833;28;20820;-56
2022/09/22 04:34:41;;;;;;;5.20;4.00;;;13.10;72.90;;;15.79;54.91;102360.75;5052430;28;20233;-57
2022/09/22 04:37:09;;;;;;;4.17;3.73;;;13.10;72.70;;;15.80;55.11;102357.09;5053239;28;20194;-57
2022/09/22 04:39:36;;;;;;;4.97;3.87;;;13.10;72.40;;;15.78;54.87;102353.78;5052489;28;20232;-56
2022/09/22 04:42:07;;;;;;;4.80;4.07;;;13.10;72.20;;;15.75;54.37;102364.75;5032892;28;20734;-58
2022/09/22 04:44:35;;;;;;;4.60;4.07;;;13.10;71.80;;;15.69;54.32;102354.78;5033311;28;20737;-54
2022/09/22 04:47:03;;;;;;;3.90;3.33;;;13.00;71.50;;;15.64;54.34;102361.59;5033166;28;20187;-59
2022/09/22 04:49:30;;;;;;;4.30;3.57;;;13.00;71.60;;;15.57;54.47;102358.75;5033124;28;20198;-57
2022/09/22 04:51:58;;;;;;;8.27;3.57;;;12.90;71.60;;;15.48;54.91;102357.97;5052447;28;20248;-54
2022/09/22 04:54:25;;;;;;;5.97;3.87;;;12.90;71.80;;;15.45;55.10;102357.47;5052385;28;20517;-56
2022/09/22 04:56:54;;;;;;;3.80;3.47;;;12.80;72.20;;;15.43;54.85;102354.09;5053247;28;20220;-57
2022/09/22 04:59:23;;;;;;;5.60;3.33;;;12.70;72.20;;;15.40;54.76;102352.59;5068286;28;20206;-56
2022/09/22 05:01:50;;;;;;;5.93;3.77;;;12.70;72.50;;;15.36;55.04;102361.06;5032828;28;20217;-57
2022/09/22 05:04:17;;;;;;;4.37;3.60;;;12.70;72.40;;;15.27;55.20;102362.06;5033750;28;20218;-57
2022/09/22 05:06:45;;;;;;;3.70;3.33;;;12.60;73.50;;;15.24;55.16;102354.44;5033588;28;20194;-56
2022/09/22 05:09:13;;;;;;;4.57;3.40;;;12.60;72.70;;;15.20;55.22;102358.41;5034300;28;20714;-57
2022/09/22 05:11:40;;;;;;;3.80;3.30;;;12.50;72.80;;;15.12;55.28;102355.78;5050154;28;20592;-55
2022/09/22 05:14:08;;;;;;;4.10;3.70;;;12.50;72.70;;;15.00;55.56;102357.88;5053909;28;20582;-56
2022/09/22 05:16:36;;;;;;;4.63;4.20;;;12.40;72.70;;;14.86;55.97;102361.16;5053765;28;20247;-57
2022/09/22 05:19:04;;;;;;;4.87;4.20;;;12.30;73.00;;;14.68;56.34;102358.66;5054556;28;20654;-59
2022/09/22 05:21:31;;;;;;;5.10;3.90;;;12.10;73.20;;;14.57;56.60;102360.78;5038719;28;20202;-55
2022/09/22 05:23:59;;;;;;;6.27;4.33;;;12.00;73.30;;;14.47;56.48;102360.06;5033642;28;20194;-58
2022/09/22 05:26:27;;;;;;;5.30;4.17;;;11.90;73.60;;;14.36;57.22;102357.72;5033743;28;20281;-56
2022/09/22 05:28:54;;;;;;;5.10;4.10;;;11.80;74.40;;;14.27;57.47;102364.75;5033406;28;20198;-56
2022/09/22 05:31:22;;;;;;;8.33;5.27;;;11.70;74.80;;;14.21;57.77;102368.03;5047619;28;20201;-58
2022/09/22 05:33:51;;;;;;;10.77;5.23;;;11.70;75.10;;;14.15;57.81;102366.84;5053430;28;20245;-55
2022/09/22 05:36:19;;;;;;;9.73;5.50;;;11.60;75.30;;;14.15;57.89;102363.38;5053182;28;20221;-57
2022/09/22 05:38:46;;;;;;;8.00;5.00;;;11.50;75.50;;;14.15;57.98;102371.31;5053386;28;20193;-56
2022/09/22 05:41:13;;;;;;;9.03;5.10;;;11.50;75.90;;;14.16;57.83;102367.69;5040492;28;20205;-56
2022/09/22 05:43:41;;;;;;;7.83;5.40;;;11.50;75.70;;;14.20;57.80;102375.16;5033225;28;20210;-55
2022/09/22 05:46:08;;;;;;;10.43;6.27;;;11.50;75.90;;;14.25;58.21;102372.03;5032980;28;20218;-57
2022/09/22 05:48:35;;;;;;;7.57;6.20;;;11.50;76.50;;;14.37;58.30;102364.66;5032964;28;20190;-57
2022/09/22 05:51:04;;;;;;;4.53;4.13;;;11.60;77.20;;;14.47;57.63;102368.03;5032776;28;20302;-55
2022/09/22 05:53:31;;;;;;;5.27;4.30;;;11.70;76.40;;;14.49;57.15;102369.53;5032799;28;20543;-54
2022/09/22 05:55:59;;;;;;;9.13;4.43;;;11.70;75.80;;;14.49;57.50;102374.81;5032064;28;20199;-57
2022/09/22 05:58:26;;;;;;;4.83;3.77;;;11.70;75.60;;;14.50;57.18;102375.66;5034662;28;20660;-57
2022/09/22 06:00:56;;;;;;;4.10;3.70;;;11.70;75.20;;;14.53;57.09;102376.16;5046341;28;20186;-57
2022/09/22 06:03:24;;;;;;;6.17;3.80;;;11.80;75.40;;;14.51;56.88;102378.13;5053677;28;20205;-56
2022/09/22 06:05:54;;;;;;;6.17;3.77;;;11.80;75.20;;;14.49;56.78;102373.97;5051462;28;20214;-62
2022/09/22 06:08:23;;;;;;;4.37;3.30;;;11.80;75.00;;;14.45;57.08;102378.78;5051295;28;20588;-55
2022/09/22 06:10:51;;;;;;;7.63;4.37;;;11.70;75.00;;;14.38;57.18;102377.72;5043797;28;20182;-57
2022/09/22 06:13:18;;;;;;;9.93;3.80;;;11.70;75.10;;;14.27;57.25;102380.63;5032350;28;20214;-57
2022/09/22 06:15:49;;;;;;;8.23;4.83;;;11.70;75.20;;;14.25;57.57;102377.31;5030917;28;20202;-56
2022/09/22 06:18:16;;;;;;;12.37;9.47;;;11.60;75.20;;;14.26;57.41;102382.44;5032359;28;20202;-55
2022/09/22 06:20:51;;;;;;;6.93;5.27;;;11.60;75.50;;;14.37;57.73;102381.38;5031959;28;20193;-55
2022/09/22 06:23:18;;;;;;;6.40;5.57;;;11.60;76.30;;;14.52;58.04;102385.13;5030487;28;20594;-57
2022/09/22 06:25:47;;;;;;;5.97;4.83;;;11.70;76.70;;;14.68;57.59;102381.69;5032780;28;20210;-59
2022/09/22 06:28:15;;;;;;;5.33;3.83;;;11.80;76.70;;;14.83;57.35;102383.53;5032452;28;20218;-57
2022/09/22 06:30:42;;;;;;;9.30;4.20;;;11.90;76.60;;;15.01;56.61;102387.88;5037886;28;20689;-55
2022/09/22 06:33:10;;;;;;;7.67;4.33;;;12.00;76.40;;;15.18;56.61;102386.94;5051629;28;20263;-57
2022/09/22 06:35:41;;;;;;;7.67;4.80;;;12.20;76.10;;;15.26;55.72;102379.78;5051042;28;20193;-56
2022/09/22 06:38:13;;;;;;;7.17;4.20;;;12.30;74.50;;;15.27;55.10;102376.16;5051477;28;20535;-54
2022/09/22 06:40:42;;;;;;;5.63;3.83;;;12.40;73.80;;;15.30;55.38;102380.31;5041905;28;20217;-56
2022/09/22 06:43:19;;;;;;;5.73;4.13;;;12.50;73.80;;;15.37;55.40;102381.31;5030775;28;20221;-59
2022/09/22 06:45:46;;;;;;;7.03;4.23;;;12.50;74.00;;;15.47;55.16;102382.03;5030929;28;20202;-54
2022/09/22 06:48:14;;;;;;;7.63;5.27;;;12.60;73.50;;;15.68;55.25;102377.03;5030692;28;20199;-55
2022/09/22 06:50:47;;;;;;;11.27;8.80;;;12.70;74.10;;;16.10;54.93;102385.56;5037053;28;20259;-57
2022/09/22 06:53:14;;;;;;;7.97;6.37;;;12.90;74.90;;;16.63;53.88;102382.28;5050935;28;20221;-58
2022/09/22 06:55:42;;;;;;;8.40;5.10;;;13.20;74.10;;;17.19;53.60;102382.91;5050955;28;20214;-57
2022/09/22 06:58:12;;;;;;;7.37;4.20;;;13.60;74.90;;;17.78;52.71;102373.31;5051238;28;20252;-57
2022/09/22 07:00:42;;;;;;;5.93;3.43;;;14.10;73.70;;;18.37;50.78;102371.50;5043919;28;20187;-57
2022/09/22 07:03:19;;;;;;;5.40;3.80;;;14.60;71.20;;;19.09;49.01;102364.38;5030474;28;20276;-55
2022/09/22 07:05:55;;;;;;;6.50;4.43;;;15.10;69.10;;;19.90;47.32;102369.16;5029863;28;20207;-57
2022/09/22 07:08:24;;;;;;;6.03;3.33;;;15.80;67.50;;;20.55;45.39;102363.38;5030834;28;20205;-56
2022/09/22 07:10:53;;;;;;;7.73;3.30;;;16.40;65.30;;;20.84;44.39;102366.59;5038106;28;20236;-56
2022/09/22 07:13:22;;;;;;;6.67;3.77;;;16.90;63.60;;;20.98;43.43;102363.91;5050949;28;20260;-57
2022/09/22 07:15:50;;;;;;;6.93;3.60;;;17.20;61.20;;;20.98;43.04;102370.09;5050988;28;20251;-56
2022/09/22 07:18:17;;;;;;;10.50;4.33;;;17.40;60.40;;;21.08;42.22;102364.38;5054333;28;20186;-57
2022/09/22 07:20:45;;;;;;;5.97;3.90;;;17.50;58.90;;;21.36;42.30;102363.19;5047428;28;20197;-57
2022/09/22 07:23:17;;;;;;;6.00;3.73;;;17.60;59.40;;;21.76;41.27;102357.78;5034420;28;20222;-57
2022/09/22 07:25:55;;;;;;;9.80;4.30;;;17.70;58.40;;;22.18;40.65;102366.19;5034461;28;20199;-59
2022/09/22 07:28:27;;;;;;;8.87;3.90;;;17.90;58.50;;;22.65;40.02;102366.88;5034271;28;20213;-58
2022/09/22 07:30:57;;;;;;;4.97;3.60;;;18.20;57.90;;;22.90;38.78;102363.22;5041495;28;20266;-58
2022/09/22 07:33:25;;;;;;;4.53;3.43;;;18.40;56.80;;;22.75;38.88;102365.38;5041119;28;20317;-57
2022/09/22 07:36:01;;;;;;;4.03;3.47;;;18.60;56.40;;;22.44;38.74;102367.97;5034251;28;20183;-54
2022/09/22 07:38:32;;;;;;;5.37;3.73;;;18.60;55.30;;;22.05;39.29;102357.38;5034623;28;20190;-57
2022/09/22 07:41:00;;;;;;;4.43;3.67;;;18.50;54.80;;;21.71;40.27;102354.91;5041743;28;20190;-54
2022/09/22 07:43:29;;;;;;;15.17;10.77;;;18.30;55.20;;;21.36;40.64;102354.31;5041997;28;20222;-58
2022/09/22 07:45:56;;;;;;;7.00;4.20;;;18.20;55.50;;;21.04;40.72;102353.22;5033850;28;20210;-55
2022/09/22 07:48:35;;;;;;;7.23;4.23;;;18.00;55.80;;;20.74;41.78;102357.28;5034267;28;20194;-58
2022/09/22 07:51:04;;;;;;;7.83;4.07;;;17.80;56.30;;;20.48;42.57;102359.84;5042122;28;20182;-58
2022/09/22 07:53:32;;;;;;;6.63;3.77;;;17.60;56.80;;;20.37;42.44;102355.09;5053061;28;20226;-57
2022/09/22 07:56:05;;;;;;;6.00;3.93;;;17.40;57.30;;;20.30;42.66;102355.03;5054018;28;20228;-56
2022/09/22 07:58:33;;;;;;;9.83;3.20;;;17.30;57.60;;;20.13;42.78;102357.19;5053537;28;20205;-55
2022/09/22 08:01:06;;;;;;;6.17;3.40;;;17.20;57.00;;;19.99;43.13;102360.78;5052668;28;20244;-55
2022/09/22 08:03:41;;;;;;;7.27;3.20;;;17.10;57.50;;;19.84;43.39;102357.44;5051758;28;20230;-56
2022/09/22 08:06:11;;;;;;;6.17;3.13;;;17.00;57.70;;;19.76;43.32;102354.91;5052486;28;20226;-57
2022/09/22 08:08:41;;;;;;;4.47;2.57;;;16.90;57.60;;;19.72;42.78;102356.31;5051937;28;20251;-54
2022/09/22 08:11:12;;;;;;;6.53;3.10;;;16.80;57.10;;;19.87;43.04;102365.03;5043668;28;20257;-58
2022/09/22 08:13:43;;;;;;;7.63;2.97;;;16.80;57.50;;;20.54;41.96;102359.88;5033622;28;20266;-56
2022/09/22 08:16:10;;;;;;;3.00;2.20;;;16.90;57.40;;;21.42;39.67;102366.88;5033722;28;20245;-56
2022/09/22 08:18:41;;;;;;;6.20;2.47;;;17.20;56.40;;;22.45;38.87;102358.88;5033577;28;20613;-59
2022/09/22 08:21:08;;;;;;;6.27;1.80;;;17.80;56.40;;;23.37;35.80;102364.56;5041953;28;20243;-54
2022/09/22 08:23:38;;;;;;;3.30;1.97;;;18.40;53.00;;;24.18;34.07;102351.81;5053440;28;20218;-56
2022/09/22 08:26:10;;;;;;;3.53;1.87;;;19.10;51.10;;;24.88;33.62;102354.88;5053502;28;20220;-57
2022/09/22 08:28:37;;;;;;;5.40;2.07;;;19.80;50.50;;;25.82;32.75;102359.34;5053521;28;20276;-56
2022/09/22 08:31:11;;;;;;;4.23;2.10;;;20.50;49.30;;;26.86;31.09;102351.81;5045154;28;20252;-57
2022/09/22 08:33:39;;;;;;;4.37;1.93;;;21.30;47.70;;;27.84;29.65;102358.56;5033578;28;20288;-56
2022/09/22 08:36:08;;;;;;;3.77;1.77;;;22.10;46.60;;;28.63;27.76;102357.16;5033494;28;20769;-57
2022/09/22 08:38:36;;;;;;;4.87;1.87;;;22.80;43.20;;;29.05;26.92;102355.41;5033476;28;20751;-59
2022/09/22 08:41:20;;;;;;;2.97;1.83;;;23.50;41.30;;;29.52;26.24;102354.72;5040284;28;20193;-57
2022/09/22 08:43:54;;;;;;;3.73;1.90;;;24.10;40.10;;;30.07;26.36;102360.53;5052989;28;20291;-58
2022/09/22 08:46:30;;;;;;;5.20;2.17;;;24.60;39.80;;;30.67;25.59;102358.03;5052984;28;20220;-57
2022/09/22 08:52:04;;;;;;;2.63;1.77;;;25.60;37.30;;;31.78;24.16;102359.97;5037894;28;20305;-57
2022/09/22 08:54:32;;;;;;;3.90;3.13;;;26.10;37.20;;;32.33;23.26;102364.41;5033015;28;20194;-58
2022/09/22 08:57:30;;;;;;;6.07;2.13;;;26.50;35.60;;;32.75;23.38;102368.28;5032654;28;20187;-59
2022/09/22 09:00:05;;;;;;;2.87;1.70;;;27.00;35.10;;;33.06;22.00;102360.72;5032110;28;20210;-57
2022/09/22 09:02:44;;;;;;;3.80;1.57;;;27.40;33.00;;;33.32;21.64;102361.31;5051334;28;20745;-58
2022/09/22 09:06:06;;;;;;;2.23;1.63;;;27.70;32.10;;;33.60;22.15;102359.69;5050142;28;20655;-57
2022/09/22 09:09:22;;;;;;;4.07;2.83;;;28.00;33.00;;;34.36;20.91;102357.69;5043852;28;20206;-54
2022/09/22 09:12:10;;;;;;;5.73;2.67;;;28.50;31.70;;;35.01;20.54;102361.41;5045933;28;20245;-59
2022/09/22 09:15:08;;;;;;;3.73;2.03;;;29.00;31.40;;;35.37;19.67;102353.41;5046209;28;20647;-56
2022/09/22 09:17:44;;;;;;;4.82;1.80;;;29.30;30.60;;;35.51;20.01;102358.94;5049452;28;20201;-57
2022/09/22 09:20:17;;;;;;;3.70;2.05;;;29.60;29.60;;;35.86;18.85;102350.81;5056930;28;20682;-58
2022/09/22 09:22:54;;;;;;;3.53;2.10;;;29.90;29.10;;;36.33;19.42;102348.75;5053387;28;20230;-58
2022/09/22 09:25:35;;;;;;;2.83;1.75;;;30.20;29.30;;;36.77;18.63;102350.78;5052207;28;20659;-56
2022/09/22 09:28:12;;;;;;;4.28;2.17;;;30.60;28.40;;;36.87;17.92;102351.34;5051805;28;20193;-55
2022/09/22 09:30:46;;;;;;;3.03;1.88;;;30.80;27.40;;;37.04;18.02;102354.22;5050385;28;20236;-58
2022/09/22 09:33:28;;;;;;;2.92;2.13;;;31.10;27.60;;;37.40;17.97;102345.06;5049027;28;20222;-59
2022/09/22 09:35:57;;;;;;;3.45;1.70;;;31.30;27.80;;;37.53;17.31;102335.94;5046882;28;20231;-57
2022/09/22 09:38:34;;;;;;;2.85;2.20;;;31.40;25.80;;;37.53;17.42;102338.69;5051456;28;20663;-55
2022/09/22 09:41:13;;;;;;;3.78;1.70;;;31.60;26.00;;;37.18;16.27;102338.47;5045493;28;20198;-57
2022/09/22 09:43:44;;;;;;;3.75;2.20;;;31.50;24.70;;;36.76;16.73;102333.50;5033276;28;20222;-56
2022/09/22 09:46:28;;;;;;;3.25;2.08;;;31.50;25.30;;;36.87;16.98;102337.63;5051205;28;20201;-57
2022/09/22 09:49:13;;;;;;;3.63;1.65;;;31.40;25.20;;;36.83;17.07;102322.88;5042408;28;20194;-57
2022/09/22 09:51:45;;;;;;;7.32;2.55;;;31.40;24.90;;;36.64;16.83;102325.00;5050198;28;20217;-56
2022/09/22 09:54:16;;;;;;;3.50;1.80;;;31.20;24.90;;;36.43;17.68;102321.91;5046219;28;20195;-59
2022/09/22 09:57:09;;;;;;;3.75;1.42;;;31.20;25.70;;;36.75;17.26;102318.16;5043161;28;20200;-58
2022/09/22 10:02:30;;;;;;;4.07;1.95;;;31.40;25.10;;;37.50;16.80;102314.56;5048097;28;20217;-59
2022/09/22 10:05:03;;;;;;;2.67;1.67;;;31.60;25.50;;;37.64;16.39;102313.31;5051381;28;20204;-57
2022/09/22 10:07:42;;;;;;;3.40;1.77;;;31.70;25.10;;;37.69;16.29;102309.63;5051065;28;20197;-56
2022/09/22 10:10:32;;;;;;;3.88;2.00;;;31.70;25.20;;;37.72;16.24;102309.00;5049219;28;20270;-59
2022/09/22 10:13:25;;;;;;;4.85;2.33;;;31.80;24.80;;;37.52;16.45;102307.63;5046986;28;20241;-57
2022/09/22 10:16:29;;;;;;;8.68;6.18;;;31.80;25.20;;;36.40;17.82;102305.22;5031173;28;20190;-58
2022/09/22 10:19:21;;;;;;;3.20;2.60;;;31.60;25.20;;;36.16;17.80;102305.50;5030084;28;20174;-59
2022/09/22 10:21:50;;;;;;;3.15;2.10;;;31.20;25.40;;;35.25;18.46;102301.03;5030747;28;20202;-57
2022/09/22 10:24:30;;;;;;;2.43;1.83;;;30.90;25.60;;;33.62;19.54;102300.09;5030824;28;20329;-58
2022/09/22 10:26:58;;;;;;;5.27;1.80;;;30.20;25.90;;;32.52;20.68;102294.53;5031226;28;20575;-57
2022/09/22 10:29:31;;;;;;;4.90;2.17;;;29.40;26.60;;;31.70;21.19;102293.22;5032054;28;20194;-58
2022/09/22 10:32:04;;;;;;;3.80;1.70;;;28.80;27.60;;;31.05;22.60;102294.13;5044261;28;20236;-57
2022/09/22 10:34:35;;;;;;;5.63;1.50;;;28.20;28.20;;;30.56;23.27;102285.69;5053109;28;20198;-55
2022/09/22 10:37:09;;;;;;;3.57;1.63;;;27.70;29.10;;;30.00;23.38;102284.66;5053635;28;20229;-56
2022/09/22 10:39:44;;;;;;;4.73;2.00;;;27.10;29.30;;;29.19;24.21;102290.72;5052581;28;20244;-56
2022/09/22 10:42:32;;;;;;;3.77;1.67;;;26.50;29.90;;;28.40;25.02;102286.97;5038138;28;20214;-56